sensor_id;sensor_type;location;lat;lon;timestamp;pressure;altitude;pressure_sealevel;temperature;humidity
52983;BME280;48698;45.736;13.926;2023-12-22T00:03:53;96040.78;;;7.20;100.00
52983;BME280;48698;45.736;13.926;2023-12-22T00:08:57;96003.22;;;6.88;100.00
52983;BME280;48698;45.736;13.926;2023-12-22T00:14:00;95726.22;;;5.23;100.00
52983;BME280;48698;45.736;13.926;2023-12-22T00:19:04;95960.53;;;6.82;100.00
52983;BME280;48698;45.736;13.926;2023-12-22T00:24:08;96013.00;;;7.00;100.00
52983;BME280;48698;45.736;13.926;2023-12-22T00:29:11;95890.84;;;6.43;100.00
52983;BME280;48698;45.736;13.926;2023-12-22T00:34:15;95972.72;;;7.11;100.00
52983;BME280;48698;45.736;13.926;2023-12-22T00:39:18;95989.50;;;7.10;100.00
52983;BME280;48698;45.736;13.926;2023-12-22T00:44:22;95999.78;;;7.14;100.00
52983;BME280;48698;45.736;13.926;2023-12-22T00:49:29;95963.25;;;6.80;100.00
52983;BME280;48698;45.736;13.926;2023-12-22T00:54:34;95864.47;;;6.57;100.00
52983;BME280;48698;45.736;13.926;2023-12-22T00:59:37;95823.56;;;6.79;100.00
52983;BME280;48698;45.736;13.926;2023-12-22T01:04:41;95935.50;;;7.42;100.00
52983;BME280;48698;45.736;13.926;2023-12-22T01:09:44;95927.06;;;7.23;100.00
52983;BME280;48698;45.736;13.926;2023-12-22T01:14:48;95831.44;;;6.52;100.00
52983;BME280;48698;45.736;13.926;2023-12-22T01:19:55;95833.44;;;6.34;100.00
52983;BME280;48698;45.736;13.926;2023-12-22T01:24:58;95834.75;;;6.41;100.00
52983;BME280;48698;45.736;13.926;2023-12-22T01:30:03;95913.72;;;6.71;100.00
52983;BME280;48698;45.736;13.926;2023-12-22T01:35:07;95875.03;;;6.57;100.00
52983;BME280;48698;45.736;13.926;2023-12-22T01:40:13;95735.06;;;5.64;100.00
52983;BME280;48698;45.736;13.926;2023-12-22T01:45:17;95794.88;;;5.77;100.00
52983;BME280;48698;45.736;13.926;2023-12-22T01:50:21;95948.66;;;6.74;100.00
52983;BME280;48698;45.736;13.926;2023-12-22T01:55:24;95735.97;;;5.21;100.00
52983;BME280;48698;45.736;13.926;2023-12-22T02:00:28;95822.69;;;5.52;100.00
52983;BME280;48698;45.736;13.926;2023-12-22T02:05:32;96047.50;;;6.55;100.00
52983;BME280;48698;45.736;13.926;2023-12-22T02:10:36;96040.44;;;6.55;100.00
52983;BME280;48698;45.736;13.926;2023-12-22T02:15:40;96064.66;;;6.62;100.00
52983;BME280;48698;45.736;13.926;2023-12-22T02:20:43;96014.63;;;6.46;100.00
52983;BME280;48698;45.736;13.926;2023-12-22T02:25:49;95996.16;;;6.32;100.00
52983;BME280;48698;45.736;13.926;2023-12-22T02:31:06;96066.88;;;6.54;100.00
52983;BME280;48698;45.736;13.926;2023-12-22T02:36:13;96051.91;;;6.54;100.00
52983;BME280;48698;45.736;13.926;2023-12-22T02:41:19;95911.50;;;5.35;100.00
52983;BME280;48698;45.736;13.926;2023-12-22T02:46:23;95926.22;;;5.23;100.00
52983;BME280;48698;45.736;13.926;2023-12-22T02:51:27;95998.06;;;6.00;100.00
52983;BME280;48698;45.736;13.926;2023-12-22T02:56:30;95841.34;;;5.04;100.00
52983;BME280;48698;45.736;13.926;2023-12-22T03:01:34;96013.69;;;6.03;100.00
52983;BME280;48698;45.736;13.926;2023-12-22T03:06:37;95859.63;;;5.37;100.00
52983;BME280;48698;45.736;13.926;2023-12-22T03:11:41;95744.38;;;4.84;100.00
52983;BME280;48698;45.736;13.926;2023-12-22T03:16:44;95813.06;;;5.37;100.00
52983;BME280;48698;45.736;13.926;2023-12-22T03:21:51;95755.63;;;4.56;100.00
52983;BME280;48698;45.736;13.926;2023-12-22T03:26:54;95919.69;;;5.74;100.00
52983;BME280;48698;45.736;13.926;2023-12-22T03:31:58;95877.19;;;5.06;100.00
52983;BME280;48698;45.736;13.926;2023-12-22T03:37:02;95897.53;;;5.18;100.00
52983;BME280;48698;45.736;13.926;2023-12-22T03:42:05;95962.13;;;5.69;100.00
52983;BME280;48698;45.736;13.926;2023-12-22T03:47:09;95881.13;;;5.29;100.00
52983;BME280;48698;45.736;13.926;2023-12-22T03:52:13;95852.88;;;4.72;100.00
52983;BME280;48698;45.736;13.926;2023-12-22T03:57:17;95820.16;;;4.61;100.00
52983;BME280;48698;45.736;13.926;2023-12-22T04:02:21;95901.66;;;4.61;100.00
52983;BME280;48698;45.736;13.926;2023-12-22T04:07:26;95924.25;;;4.17;100.00
52983;BME280;48698;45.736;13.926;2023-12-22T04:12:30;96015.25;;;4.84;100.00
52983;BME280;48698;45.736;13.926;2023-12-22T04:17:33;95915.50;;;4.16;100.00
52983;BME280;48698;45.736;13.926;2023-12-22T04:22:37;95971.44;;;4.51;100.00
52983;BME280;48698;45.736;13.926;2023-12-22T04:27:40;96030.97;;;5.16;100.00
52983;BME280;48698;45.736;13.926;2023-12-22T04:32:45;95924.72;;;4.56;100.00
52983;BME280;48698;45.736;13.926;2023-12-22T04:37:49;96042.69;;;5.27;100.00
52983;BME280;48698;45.736;13.926;2023-12-22T04:42:52;95927.09;;;4.77;100.00
52983;BME280;48698;45.736;13.926;2023-12-22T04:47:56;96034.16;;;5.37;100.00
52983;BME280;48698;45.736;13.926;2023-12-22T04:53:00;95981.22;;;5.12;100.00
52983;BME280;48698;45.736;13.926;2023-12-22T04:58:04;95873.31;;;4.35;100.00
52983;BME280;48698;45.736;13.926;2023-12-22T05:03:10;95927.19;;;4.59;100.00
52983;BME280;48698;45.736;13.926;2023-12-22T05:08:14;95834.75;;;4.20;100.00
52983;BME280;48698;45.736;13.926;2023-12-22T05:13:19;95947.72;;;5.00;100.00
52983;BME280;48698;45.736;13.926;2023-12-22T05:18:24;95980.09;;;5.32;100.00
52983;BME280;48698;45.736;13.926;2023-12-22T05:23:27;95940.38;;;5.20;100.00
52983;BME280;48698;45.736;13.926;2023-12-22T05:28:32;95751.28;;;4.71;100.00
52983;BME280;48698;45.736;13.926;2023-12-22T05:33:35;95976.25;;;6.97;100.00
52983;BME280;48698;45.736;13.926;2023-12-22T05:38:39;96021.09;;;7.52;100.00
52983;BME280;48698;45.736;13.926;2023-12-22T05:43:43;96015.69;;;7.27;100.00
52983;BME280;48698;45.736;13.926;2023-12-22T05:48:47;95912.78;;;6.72;100.00
52983;BME280;48698;45.736;13.926;2023-12-22T05:53:51;95867.81;;;6.73;100.00
52983;BME280;48698;45.736;13.926;2023-12-22T05:58:57;95900.28;;;7.02;100.00
52983;BME280;48698;45.736;13.926;2023-12-22T06:04:00;95743.63;;;5.96;100.00
52983;BME280;48698;45.736;13.926;2023-12-22T06:09:05;95962.88;;;7.27;100.00
52983;BME280;48698;45.736;13.926;2023-12-22T06:14:08;95876.94;;;6.41;100.00
52983;BME280;48698;45.736;13.926;2023-12-22T06:19:11;95876.19;;;6.11;100.00
52983;BME280;48698;45.736;13.926;2023-12-22T06:24:16;96115.69;;;7.46;100.00
52983;BME280;48698;45.736;13.926;2023-12-22T06:29:19;96002.09;;;6.36;100.00
52983;BME280;48698;45.736;13.926;2023-12-22T06:34:23;95943.19;;;5.93;100.00
52983;BME280;48698;45.736;13.926;2023-12-22T06:39:27;96000.84;;;6.41;100.00
52983;BME280;48698;45.736;13.926;2023-12-22T06:44:30;96072.81;;;6.57;100.00
52983;BME280;48698;45.736;13.926;2023-12-22T06:49:34;96047.78;;;6.20;100.00
52983;BME280;48698;45.736;13.926;2023-12-22T06:54:38;96021.41;;;5.77;100.00
52983;BME280;48698;45.736;13.926;2023-12-22T06:59:42;96083.34;;;6.29;100.00
52983;BME280;48698;45.736;13.926;2023-12-22T07:05:01;96112.97;;;6.62;100.00
52983;BME280;48698;45.736;13.926;2023-12-22T07:10:11;96093.63;;;6.18;100.00
52983;BME280;48698;45.736;13.926;2023-12-22T07:15:16;96116.38;;;6.35;100.00
52983;BME280;48698;45.736;13.926;2023-12-22T07:20:19;95964.25;;;5.02;100.00
52983;BME280;48698;45.736;13.926;2023-12-22T07:25:23;96017.13;;;5.29;100.00
52983;BME280;48698;45.736;13.926;2023-12-22T07:30:26;96033.69;;;5.92;100.00
52983;BME280;48698;45.736;13.926;2023-12-22T07:35:30;96119.50;;;6.41;100.00
52983;BME280;48698;45.736;13.926;2023-12-22T07:40:33;96119.16;;;6.47;100.00
52983;BME280;48698;45.736;13.926;2023-12-22T07:45:36;96091.97;;;6.31;100.00
52983;BME280;48698;45.736;13.926;2023-12-22T07:50:41;96017.78;;;5.93;100.00
52983;BME280;48698;45.736;13.926;2023-12-22T07:55:45;96125.59;;;6.71;100.00
52983;BME280;48698;45.736;13.926;2023-12-22T08:00:50;96137.31;;;6.82;100.00
52983;BME280;48698;45.736;13.926;2023-12-22T08:05:53;96155.91;;;7.08;100.00
52983;BME280;48698;45.736;13.926;2023-12-22T08:10:57;96037.72;;;6.13;100.00
52983;BME280;48698;45.736;13.926;2023-12-22T08:16:01;96096.09;;;6.65;100.00
52983;BME280;48698;45.736;13.926;2023-12-22T08:21:04;95998.94;;;6.15;100.00
52983;BME280;48698;45.736;13.926;2023-12-22T08:26:22;96042.97;;;6.71;100.00
52983;BME280;48698;45.736;13.926;2023-12-22T08:31:26;96137.34;;;7.38;100.00
52983;BME280;48698;45.736;13.926;2023-12-22T08:36:29;96104.13;;;7.34;100.00
52983;BME280;48698;45.736;13.926;2023-12-22T08:41:33;96104.03;;;7.76;100.00
52983;BME280;48698;45.736;13.926;2023-12-22T08:46:40;96115.88;;;8.24;100.00
52983;BME280;48698;45.736;13.926;2023-12-22T08:51:44;96112.75;;;8.71;100.00
52983;BME280;48698;45.736;13.926;2023-12-22T08:56:47;95853.69;;;7.28;100.00
52983;BME280;48698;45.736;13.926;2023-12-22T09:01:51;96143.03;;;9.05;100.00
52983;BME280;48698;45.736;13.926;2023-12-22T09:06:54;96116.13;;;8.86;100.00
52983;BME280;48698;45.736;13.926;2023-12-22T09:11:58;95986.56;;;7.55;100.00
52983;BME280;48698;45.736;13.926;2023-12-22T09:17:02;96009.50;;;7.00;100.00
52983;BME280;48698;45.736;13.926;2023-12-22T09:22:05;96181.50;;;8.05;100.00
52983;BME280;48698;45.736;13.926;2023-12-22T09:27:09;95989.47;;;6.55;100.00
52983;BME280;48698;45.736;13.926;2023-12-22T09:32:12;96093.38;;;7.23;100.00
52983;BME280;48698;45.736;13.926;2023-12-22T09:37:16;96162.66;;;7.69;100.00
52983;BME280;48698;45.736;13.926;2023-12-22T09:42:21;96211.78;;;8.00;100.00
52983;BME280;48698;45.736;13.926;2023-12-22T09:47:25;96227.44;;;8.17;100.00
52983;BME280;48698;45.736;13.926;2023-12-22T09:52:33;96129.22;;;7.41;100.00
52983;BME280;48698;45.736;13.926;2023-12-22T09:57:38;96154.84;;;7.53;100.00
52983;BME280;48698;45.736;13.926;2023-12-22T10:02:42;95978.72;;;6.72;100.00
52983;BME280;48698;45.736;13.926;2023-12-22T10:07:49;96109.41;;;7.20;100.00
52983;BME280;48698;45.736;13.926;2023-12-22T10:12:54;96204.31;;;8.06;100.00
52983;BME280;48698;45.736;13.926;2023-12-22T10:17:57;96100.84;;;7.31;100.00
52983;BME280;48698;45.736;13.926;2023-12-22T10:23:01;96148.53;;;7.13;100.00
52983;BME280;48698;45.736;13.926;2023-12-22T10:28:10;96269.94;;;8.28;100.00
52983;BME280;48698;45.736;13.926;2023-12-22T10:33:17;96170.22;;;7.61;100.00
52983;BME280;48698;45.736;13.926;2023-12-22T10:38:21;95997.28;;;6.56;100.00
52983;BME280;48698;45.736;13.926;2023-12-22T10:43:25;96039.69;;;6.96;100.00
52983;BME280;48698;45.736;13.926;2023-12-22T10:48:29;96255.91;;;8.54;100.00
52983;BME280;48698;45.736;13.926;2023-12-22T10:53:32;96095.63;;;8.11;100.00
52983;BME280;48698;45.736;13.926;2023-12-22T10:58:35;96087.09;;;8.20;100.00
52983;BME280;48698;45.736;13.926;2023-12-22T11:03:44;96167.72;;;9.06;100.00
52983;BME280;48698;45.736;13.926;2023-12-22T11:08:50;95936.88;;;8.00;100.00
52983;BME280;48698;45.736;13.926;2023-12-22T11:13:56;96077.91;;;8.90;100.00
52983;BME280;48698;45.736;13.926;2023-12-22T11:19:02;96134.94;;;9.70;100.00
52983;BME280;48698;45.736;13.926;2023-12-22T11:24:07;96125.06;;;9.72;100.00
52983;BME280;48698;45.736;13.926;2023-12-22T11:29:11;96179.63;;;10.36;100.00
52983;BME280;48698;45.736;13.926;2023-12-22T11:34:17;96041.59;;;9.54;100.00
52983;BME280;48698;45.736;13.926;2023-12-22T11:39:26;96047.19;;;9.49;100.00
52983;BME280;48698;45.736;13.926;2023-12-22T11:44:29;95972.81;;;9.16;100.00
52983;BME280;48698;45.736;13.926;2023-12-22T11:49:37;95836.84;;;8.19;100.00
52983;BME280;48698;45.736;13.926;2023-12-22T11:54:59;96037.63;;;9.59;100.00
52983;BME280;48698;45.736;13.926;2023-12-22T12:05:37;96052.22;;;9.41;100.00
52983;BME280;48698;45.736;13.926;2023-12-22T12:10:51;95993.72;;;9.44;100.00
52983;BME280;48698;45.736;13.926;2023-12-22T12:15:58;96091.00;;;10.15;100.00
52983;BME280;48698;45.736;13.926;2023-12-22T12:21:06;96150.91;;;10.54;100.00
52983;BME280;48698;45.736;13.926;2023-12-22T12:26:11;95894.91;;;8.58;100.00
52983;BME280;48698;45.736;13.926;2023-12-22T12:31:15;96041.75;;;9.63;100.00
52983;BME280;48698;45.736;13.926;2023-12-22T12:36:19;96023.56;;;9.46;100.00
52983;BME280;48698;45.736;13.926;2023-12-22T12:41:29;96016.56;;;9.45;100.00
52983;BME280;48698;45.736;13.926;2023-12-22T12:46:39;96011.81;;;9.14;100.00
52983;BME280;48698;45.736;13.926;2023-12-22T12:51:49;96126.44;;;10.37;100.00
52983;BME280;48698;45.736;13.926;2023-12-22T12:56:53;95950.06;;;9.37;100.00
52983;BME280;48698;45.736;13.926;2023-12-22T13:02:10;95881.78;;;8.93;100.00
52983;BME280;48698;45.736;13.926;2023-12-22T13:07:23;95910.31;;;9.13;100.00
52983;BME280;48698;45.736;13.926;2023-12-22T13:12:27;95990.72;;;9.72;100.00
52983;BME280;48698;45.736;13.926;2023-12-22T13:17:30;96112.59;;;10.21;100.00
52983;BME280;48698;45.736;13.926;2023-12-22T13:22:35;96135.22;;;10.27;100.00
52983;BME280;48698;45.736;13.926;2023-12-22T13:27:48;96150.22;;;10.03;100.00
52983;BME280;48698;45.736;13.926;2023-12-22T13:32:55;96160.28;;;10.10;100.00
52983;BME280;48698;45.736;13.926;2023-12-22T13:37:59;95912.56;;;8.70;100.00
52983;BME280;48698;45.736;13.926;2023-12-22T13:43:03;96090.69;;;9.83;100.00
52983;BME280;48698;45.736;13.926;2023-12-22T13:48:06;95969.78;;;8.97;100.00
52983;BME280;48698;45.736;13.926;2023-12-22T13:53:10;96123.41;;;9.95;100.00
52983;BME280;48698;45.736;13.926;2023-12-22T13:58:14;96100.91;;;9.51;100.00
52983;BME280;48698;45.736;13.926;2023-12-22T14:03:18;96024.44;;;8.98;100.00
52983;BME280;48698;45.736;13.926;2023-12-22T14:08:24;96117.56;;;9.53;100.00
52983;BME280;48698;45.736;13.926;2023-12-22T14:13:29;95849.34;;;8.04;100.00
52983;BME280;48698;45.736;13.926;2023-12-22T14:18:32;96153.06;;;9.63;100.00
52983;BME280;48698;45.736;13.926;2023-12-22T14:23:36;96151.72;;;9.45;100.00
52983;BME280;48698;45.736;13.926;2023-12-22T14:28:39;96029.72;;;8.60;100.00
52983;BME280;48698;45.736;13.926;2023-12-22T14:33:44;96041.59;;;8.54;100.00
52983;BME280;48698;45.736;13.926;2023-12-22T14:38:47;96110.63;;;8.76;100.00
52983;BME280;48698;45.736;13.926;2023-12-22T14:43:51;95883.72;;;6.86;100.00
52983;BME280;48698;45.736;13.926;2023-12-22T14:48:54;96141.13;;;8.43;100.00
52983;BME280;48698;45.736;13.926;2023-12-22T14:53:58;96151.47;;;7.92;100.00
52983;BME280;48698;45.736;13.926;2023-12-22T14:59:01;96084.34;;;7.13;100.00
52983;BME280;48698;45.736;13.926;2023-12-22T15:04:05;96112.25;;;7.31;100.00
52983;BME280;48698;45.736;13.926;2023-12-22T15:09:09;96149.75;;;7.50;100.00
52983;BME280;48698;45.736;13.926;2023-12-22T15:14:13;96100.50;;;6.50;100.00
52983;BME280;48698;45.736;13.926;2023-12-22T15:19:17;96142.44;;;6.25;100.00
52983;BME280;48698;45.736;13.926;2023-12-22T15:24:21;96167.03;;;5.63;100.00
52983;BME280;48698;45.736;13.926;2023-12-22T15:29:26;96129.13;;;5.50;100.00
52983;BME280;48698;45.736;13.926;2023-12-22T15:34:29;96185.34;;;5.49;100.00
52983;BME280;48698;45.736;13.926;2023-12-22T15:39:34;96080.53;;;5.24;100.00
52983;BME280;48698;45.736;13.926;2023-12-22T15:44:42;96109.06;;;5.16;100.00
52983;BME280;48698;45.736;13.926;2023-12-22T15:49:46;96157.25;;;5.49;100.00
52983;BME280;48698;45.736;13.926;2023-12-22T15:54:50;96103.56;;;4.88;100.00
52983;BME280;48698;45.736;13.926;2023-12-22T15:59:54;96110.88;;;4.98;100.00
52983;BME280;48698;45.736;13.926;2023-12-22T16:04:58;96227.47;;;5.49;100.00
52983;BME280;48698;45.736;13.926;2023-12-22T16:10:02;96192.09;;;5.37;100.00
52983;BME280;48698;45.736;13.926;2023-12-22T16:15:08;96196.94;;;5.29;100.00
52983;BME280;48698;45.736;13.926;2023-12-22T16:20:12;96110.94;;;4.14;100.00
52983;BME280;48698;45.736;13.926;2023-12-22T16:25:15;96215.75;;;4.54;100.00
52983;BME280;48698;45.736;13.926;2023-12-22T16:30:19;95898.16;;;2.22;100.00
52983;BME280;48698;45.736;13.926;2023-12-22T16:35:22;96047.81;;;3.45;100.00
52983;BME280;48698;45.736;13.926;2023-12-22T16:40:26;96233.91;;;4.42;100.00
52983;BME280;48698;45.736;13.926;2023-12-22T16:45:29;96165.41;;;3.19;100.00
52983;BME280;48698;45.736;13.926;2023-12-22T16:50:33;96166.56;;;2.93;100.00
52983;BME280;48698;45.736;13.926;2023-12-22T16:55:37;96271.78;;;3.64;100.00
52983;BME280;48698;45.736;13.926;2023-12-22T17:00:40;96227.34;;;3.60;100.00
52983;BME280;48698;45.736;13.926;2023-12-22T17:05:44;95946.09;;;1.85;100.00
52983;BME280;48698;45.736;13.926;2023-12-22T17:10:48;96245.81;;;3.38;100.00
52983;BME280;48698;45.736;13.926;2023-12-22T17:15:52;96118.22;;;2.61;100.00
52983;BME280;48698;45.736;13.926;2023-12-22T17:20:57;96182.06;;;2.79;100.00
52983;BME280;48698;45.736;13.926;2023-12-22T17:26:07;96176.44;;;2.47;100.00
52983;BME280;48698;45.736;13.926;2023-12-22T17:31:13;96186.38;;;2.19;100.00
52983;BME280;48698;45.736;13.926;2023-12-22T17:36:17;96017.91;;;1.16;100.00
52983;BME280;48698;45.736;13.926;2023-12-22T17:41:21;96221.41;;;1.73;100.00
52983;BME280;48698;45.736;13.926;2023-12-22T17:46:25;96110.16;;;1.41;100.00
52983;BME280;48698;45.736;13.926;2023-12-22T17:51:28;96251.31;;;2.11;100.00
52983;BME280;48698;45.736;13.926;2023-12-22T17:56:32;96221.41;;;2.17;100.00
52983;BME280;48698;45.736;13.926;2023-12-22T18:01:42;96298.06;;;1.98;100.00
52983;BME280;48698;45.736;13.926;2023-12-22T18:06:48;96295.03;;;2.31;100.00
52983;BME280;48698;45.736;13.926;2023-12-22T18:11:51;96305.94;;;2.20;100.00
52983;BME280;48698;45.736;13.926;2023-12-22T18:16:54;96190.53;;;0.67;100.00
52983;BME280;48698;45.736;13.926;2023-12-22T18:21:58;96213.09;;;1.40;100.00
52983;BME280;48698;45.736;13.926;2023-12-22T18:27:02;96155.28;;;1.01;100.00
52983;BME280;48698;45.736;13.926;2023-12-22T18:32:05;96291.56;;;1.64;100.00
52983;BME280;48698;45.736;13.926;2023-12-22T18:37:09;96165.50;;;0.12;100.00
52983;BME280;48698;45.736;13.926;2023-12-22T18:42:14;96317.84;;;1.61;100.00
52983;BME280;48698;45.736;13.926;2023-12-22T18:47:17;96201.47;;;1.26;100.00
52983;BME280;48698;45.736;13.926;2023-12-22T18:52:21;96216.28;;;1.02;100.00
52983;BME280;48698;45.736;13.926;2023-12-22T18:57:24;96316.69;;;1.44;100.00
52983;BME280;48698;45.736;13.926;2023-12-22T19:02:28;96316.81;;;1.65;100.00
52983;BME280;48698;45.736;13.926;2023-12-22T19:07:51;96251.56;;;1.14;100.00
52983;BME280;48698;45.736;13.926;2023-12-22T19:12:56;96013.69;;;-0.50;100.00
52983;BME280;48698;45.736;13.926;2023-12-22T19:18:00;96289.81;;;1.16;100.00
52983;BME280;48698;45.736;13.926;2023-12-22T19:23:05;96211.31;;;0.70;100.00
52983;BME280;48698;45.736;13.926;2023-12-22T19:28:09;96049.63;;;-0.09;100.00
52983;BME280;48698;45.736;13.926;2023-12-22T19:33:13;96037.44;;;0.16;100.00
52983;BME280;48698;45.736;13.926;2023-12-22T19:38:17;96273.81;;;1.72;100.00
52983;BME280;48698;45.736;13.926;2023-12-22T19:43:23;96196.03;;;1.07;100.00
52983;BME280;48698;45.736;13.926;2023-12-22T19:48:27;96250.06;;;1.31;100.00
52983;BME280;48698;45.736;13.926;2023-12-22T19:53:31;96013.34;;;0.08;100.00
52983;BME280;48698;45.736;13.926;2023-12-22T19:58:34;96232.19;;;0.96;100.00
52983;BME280;48698;45.736;13.926;2023-12-22T20:03:38;96302.53;;;1.73;100.00
52983;BME280;48698;45.736;13.926;2023-12-22T20:08:42;96012.75;;;-0.23;100.00
52983;BME280;48698;45.736;13.926;2023-12-22T20:13:48;96302.25;;;1.58;100.00
52983;BME280;48698;45.736;13.926;2023-12-22T20:18:52;96222.16;;;0.84;100.00
52983;BME280;48698;45.736;13.926;2023-12-22T20:23:55;96284.06;;;1.31;100.00
52983;BME280;48698;45.736;13.926;2023-12-22T20:28:59;96259.38;;;1.38;100.00
52983;BME280;48698;45.736;13.926;2023-12-22T20:34:03;96301.22;;;1.85;100.00
52983;BME280;48698;45.736;13.926;2023-12-22T20:39:07;96181.16;;;0.86;100.00
52983;BME280;48698;45.736;13.926;2023-12-22T20:44:11;96279.72;;;1.53;100.00
52983;BME280;48698;45.736;13.926;2023-12-22T20:49:15;96153.06;;;0.68;100.00
52983;BME280;48698;45.736;13.926;2023-12-22T20:54:21;96005.59;;;-0.18;100.00
52983;BME280;48698;45.736;13.926;2023-12-22T20:59:24;96045.41;;;-0.13;100.00
52983;BME280;48698;45.736;13.926;2023-12-22T21:04:28;96214.09;;;0.90;100.00
52983;BME280;48698;45.736;13.926;2023-12-22T21:09:35;96342.78;;;1.69;100.00
52983;BME280;48698;45.736;13.926;2023-12-22T21:14:40;96331.97;;;1.32;100.00
52983;BME280;48698;45.736;13.926;2023-12-22T21:19:44;96181.91;;;0.40;100.00
52983;BME280;48698;45.736;13.926;2023-12-22T21:24:47;96297.06;;;1.33;100.00
52983;BME280;48698;45.736;13.926;2023-12-22T21:29:52;96137.09;;;0.27;100.00
52983;BME280;48698;45.736;13.926;2023-12-22T21:34:56;96223.13;;;0.81;100.00
52983;BME280;48698;45.736;13.926;2023-12-22T21:40:00;96129.91;;;0.09;100.00
52983;BME280;48698;45.736;13.926;2023-12-22T21:45:06;96267.63;;;1.28;100.00
52983;BME280;48698;45.736;13.926;2023-12-22T21:50:10;96005.38;;;-0.88;100.00
52983;BME280;48698;45.736;13.926;2023-12-22T21:55:15;96310.13;;;0.59;100.00
52983;BME280;48698;45.736;13.926;2023-12-22T22:00:19;96304.75;;;0.63;100.00
52983;BME280;48698;45.736;13.926;2023-12-22T22:05:23;96138.13;;;-0.56;100.00
52983;BME280;48698;45.736;13.926;2023-12-22T22:10:27;96078.16;;;-0.56;100.00
52983;BME280;48698;45.736;13.926;2023-12-22T22:15:30;96065.41;;;-0.63;100.00
52983;BME280;48698;45.736;13.926;2023-12-22T22:20:33;96047.09;;;-0.62;100.00
52983;BME280;48698;45.736;13.926;2023-12-22T22:25:37;96280.50;;;1.09;100.00
52983;BME280;48698;45.736;13.926;2023-12-22T22:30:41;95996.66;;;-0.61;100.00
52983;BME280;48698;45.736;13.926;2023-12-22T22:35:47;96271.59;;;1.15;100.00
52983;BME280;48698;45.736;13.926;2023-12-22T22:40:50;96286.91;;;0.76;100.00
52983;BME280;48698;45.736;13.926;2023-12-22T22:45:54;96055.41;;;-0.77;100.00
52983;BME280;48698;45.736;13.926;2023-12-22T22:50:57;96087.44;;;-0.21;100.00
52983;BME280;48698;45.736;13.926;2023-12-22T22:56:01;96166.56;;;-0.20;100.00
52983;BME280;48698;45.736;13.926;2023-12-22T23:01:08;96275.44;;;1.04;100.00
52983;BME280;48698;45.736;13.926;2023-12-22T23:06:11;96246.59;;;0.83;100.00
52983;BME280;48698;45.736;13.926;2023-12-22T23:11:15;96270.84;;;0.62;100.00
52983;BME280;48698;45.736;13.926;2023-12-22T23:16:19;96210.94;;;0.31;100.00
52983;BME280;48698;45.736;13.926;2023-12-22T23:21:23;96304.25;;;0.78;100.00
52983;BME280;48698;45.736;13.926;2023-12-22T23:26:26;96230.69;;;0.39;100.00
52983;BME280;48698;45.736;13.926;2023-12-22T23:31:29;96302.59;;;1.00;100.00
52983;BME280;48698;45.736;13.926;2023-12-22T23:36:33;96255.38;;;0.80;100.00
52983;BME280;48698;45.736;13.926;2023-12-22T23:41:37;96251.34;;;0.72;100.00
52983;BME280;48698;45.736;13.926;2023-12-22T23:46:40;96287.78;;;0.99;100.00
52983;BME280;48698;45.736;13.926;2023-12-22T23:51:43;96210.47;;;0.44;100.00
52983;BME280;48698;45.736;13.926;2023-12-22T23:56:53;96185.03;;;0.00;100.00
